Virtual Washington ARTCC

Weather

KBWI 190854Z 00000KT 10SM CLR M04/M06 A3019 RMK AO2 SLP223 T10441056 50005
KDCA 190852Z 25003KT 10SM FEW250 01/M05 A3021 RMK AO2 SLP229 T00061050 50003
KIAD 190852Z 00000KT 10SM CLR M04/M05 A3019 RMK AO2 SLP225 T10441050 58001
KORF 190851Z 23004KT 10SM CLR M01/M02 A3022 RMK AO2 SLP232 T10061017 50005
KRDU 190851Z 00000KT 10SM BKN250 M01/M02 A3020 RMK AO2 SLP227 T10061017 57004

TOP FIVE CONTROLLERS


We're sorry, this feature is currently unavailable.

Events



ZDC Activity

No controllers online.

News



The information contained on all pages of this website is to be used for flight simulation purposes only on the VATSIM network. It is not intended nor should it be used for real world navigation.This site is not affiliated with the FAA, the actual Washington Center or any governing aviation body. All content contained herein is approved only for use on the VATSIM network. ©2016 Virtual Washington ARTCC -- Source Code © 2016-2017 W. Guisbond and R. Rump.
By using this website you agree to all VATSIM Privacy Regulations as can be found on https://www.vatsim.net/documents/privacy-policy. This website uses cookie$